createdAt,value
2023-02-07T00:00:52.300Z,103381.63
2023-02-07T00:03:20.754Z,103374.44
2023-02-07T00:05:48.444Z,103377.72
2023-02-07T00:08:16.180Z,103376.75
2023-02-07T00:10:44.046Z,103377.22
2023-02-07T00:13:11.758Z,103382.50
2023-02-07T00:15:40.030Z,103382.25
2023-02-07T00:18:09.193Z,103389.63
2023-02-07T00:20:36.917Z,103393.59
2023-02-07T00:23:04.631Z,103386.66
2023-02-07T00:25:32.373Z,103384.81
2023-02-07T00:28:00.210Z,103372.66
2023-02-07T00:30:28.165Z,103375.16
2023-02-07T00:32:56.123Z,103371.53
2023-02-07T00:35:25.247Z,103378.25
2023-02-07T00:37:52.984Z,103370.22
2023-02-07T00:40:20.826Z,103357.06
2023-02-07T00:42:48.551Z,103359.50
2023-02-07T00:45:16.300Z,103361.19
2023-02-07T00:47:43.964Z,103358.09
2023-02-07T00:50:11.719Z,103352.72
2023-02-07T00:52:40.846Z,103349.00
2023-02-07T00:55:09.330Z,103359.25
2023-02-07T00:57:37.117Z,103363.41
2023-02-07T01:00:05.707Z,103361.53
2023-02-07T01:02:33.446Z,103359.66
2023-02-07T01:05:01.210Z,103354.38
2023-02-07T01:07:29.320Z,103347.44
2023-02-07T01:09:58.400Z,103339.50
2023-02-07T01:12:26.128Z,103322.16
2023-02-07T01:14:53.802Z,103331.69
2023-02-07T01:17:21.560Z,103337.53
2023-02-07T01:19:49.236Z,103340.84
2023-02-07T01:22:17.189Z,103338.09
2023-02-07T01:24:44.912Z,103332.81
2023-02-07T01:27:14.032Z,103339.41
2023-02-07T01:29:41.928Z,103341.16
2023-02-07T01:32:10.232Z,103342.03
2023-02-07T01:34:38.132Z,103344.56
2023-02-07T01:37:05.815Z,103344.56
2023-02-07T01:39:33.616Z,103347.13
2023-02-07T01:42:01.333Z,103346.34
2023-02-07T01:45:02.355Z,103351.63
2023-02-07T01:47:30.898Z,103347.88
2023-02-07T01:49:59.816Z,103356.34
2023-02-07T01:52:30.036Z,103357.25
2023-02-07T01:55:01.908Z,103357.78
2023-02-07T01:57:29.827Z,103365.38
2023-02-07T01:59:58.683Z,103355.59
2023-02-07T02:02:29.772Z,103353.94
2023-02-07T02:04:59.156Z,103359.97
2023-02-07T02:07:27.600Z,103356.69
2023-02-07T02:09:55.294Z,103366.16
2023-02-07T02:12:33.492Z,103366.03
2023-02-07T02:15:32.046Z,103368.28
2023-02-07T02:18:30.441Z,103363.06
2023-02-07T02:21:42.807Z,103351.50
2023-02-07T02:24:40.873Z,103352.91
2023-02-07T02:27:12.394Z,103357.75
2023-02-07T02:30:04.720Z,103351.81
2023-02-07T02:32:53.259Z,103355.69
2023-02-07T02:35:23.441Z,103345.81
2023-02-07T02:37:56.210Z,103349.09
2023-02-07T02:40:29.285Z,103343.06
2023-02-07T02:43:00.898Z,103345.59
2023-02-07T02:45:31.077Z,103348.06
2023-02-07T02:48:02.196Z,103359.22
2023-02-07T02:50:30.996Z,103356.44
2023-02-07T02:52:58.883Z,103353.69
2023-02-07T02:55:56.123Z,103345.94
2023-02-07T02:58:28.022Z,103354.63
2023-02-07T03:01:05.372Z,103356.00
2023-02-07T03:04:05.330Z,103355.06
2023-02-07T03:06:42.741Z,103341.78
2023-02-07T03:09:18.145Z,103347.50
2023-02-07T03:11:51.737Z,103347.31
2023-02-07T03:14:24.992Z,103349.63
2023-02-07T03:16:59.172Z,103347.56
2023-02-07T03:19:31.214Z,103354.22
2023-02-07T03:22:01.440Z,103353.16
2023-02-07T03:24:32.442Z,103355.47
2023-02-07T03:27:02.420Z,103359.75
2023-02-07T03:29:30.744Z,103361.47
2023-02-07T03:32:00.414Z,103358.00
2023-02-07T03:34:34.504Z,103354.28
2023-02-07T03:37:05.680Z,103364.41
2023-02-07T03:39:33.908Z,103366.78
2023-02-07T03:42:05.343Z,103345.88
2023-02-07T03:44:34.669Z,103345.25
2023-02-07T03:47:02.489Z,103353.06
2023-02-07T03:49:31.567Z,103351.31
2023-02-07T03:51:59.281Z,103335.56
2023-02-07T03:54:27.071Z,103346.06
2023-02-07T03:56:54.804Z,103355.44
2023-02-07T03:59:22.527Z,103346.75
2023-02-07T04:01:50.339Z,103337.31
2023-02-07T04:04:18.034Z,103346.53
2023-02-07T04:06:47.147Z,103355.91
2023-02-07T04:09:14.818Z,103343.41
2023-02-07T04:11:42.509Z,103353.75
2023-02-07T04:14:10.195Z,103339.22
2023-02-07T04:16:37.930Z,103333.72
2023-02-07T04:19:05.706Z,103336.09
2023-02-07T04:21:33.494Z,103335.28
2023-02-07T04:24:02.588Z,103339.50
2023-02-07T04:26:30.324Z,103340.25
2023-02-07T04:28:58.064Z,103345.47
2023-02-07T04:31:25.749Z,103345.41
2023-02-07T04:33:53.497Z,103339.97
2023-02-07T04:36:22.692Z,103340.72
2023-02-07T04:38:50.442Z,103331.63
2023-02-07T04:41:19.676Z,103340.44
2023-02-07T04:43:47.463Z,103336.16
2023-02-07T04:46:15.224Z,103342.47
2023-02-07T04:48:42.915Z,103348.78
2023-02-07T04:51:10.592Z,103347.84
2023-02-07T04:53:38.262Z,103347.63
2023-02-07T04:56:06.630Z,103353.59
2023-02-07T04:58:35.704Z,103351.16
2023-02-07T05:01:03.575Z,103347.56
2023-02-07T05:03:31.355Z,103354.56
2023-02-07T05:05:59.067Z,103361.63
2023-02-07T05:08:26.821Z,103353.75
2023-02-07T05:10:55.390Z,103355.31
2023-02-07T05:13:23.548Z,103361.47
2023-02-07T05:15:52.738Z,103348.44
2023-02-07T05:18:20.865Z,103351.44
2023-02-07T05:20:50.269Z,103353.94
2023-02-07T05:23:19.112Z,103357.69
2023-02-07T05:25:48.502Z,103354.84
2023-02-07T05:28:16.290Z,103349.59
2023-02-07T05:30:44.116Z,103351.31
2023-02-07T05:33:12.335Z,103346.69
2023-02-07T05:35:41.597Z,103345.13
2023-02-07T05:38:11.302Z,103337.94
2023-02-07T05:40:40.388Z,103351.56
2023-02-07T05:43:08.319Z,103351.84
2023-02-07T05:45:36.439Z,103359.72
2023-02-07T05:48:04.800Z,103347.34
2023-02-07T05:50:33.860Z,103350.88
2023-02-07T05:53:01.630Z,103353.31
2023-02-07T05:55:29.401Z,103354.34
2023-02-07T05:57:57.388Z,103359.03
2023-02-07T06:00:25.274Z,103370.22
2023-02-07T06:02:53.038Z,103372.75
2023-02-07T06:05:21.549Z,103366.56
2023-02-07T06:07:51.800Z,103371.72
2023-02-07T06:10:19.947Z,103368.31
2023-02-07T06:12:47.739Z,103370.41
2023-02-07T06:15:15.433Z,103377.31
2023-02-07T06:17:43.094Z,103374.69
2023-02-07T06:20:11.985Z,103384.38
2023-02-07T06:22:39.675Z,103370.53
2023-02-07T06:25:11.675Z,103379.09
2023-02-07T06:27:40.090Z,103378.22
2023-02-07T06:30:08.973Z,103374.81
2023-02-07T06:32:36.653Z,103380.84
2023-02-07T06:35:04.844Z,103384.09
2023-02-07T06:37:32.803Z,103385.56
2023-02-07T06:40:00.570Z,103385.69
2023-02-07T06:42:29.630Z,103385.88
2023-02-07T06:44:57.312Z,103390.72
2023-02-07T06:47:25.219Z,103397.63
2023-02-07T06:49:52.974Z,103397.41
2023-02-07T06:52:21.188Z,103391.16
2023-02-07T06:54:48.928Z,103395.44
2023-02-07T06:57:16.586Z,103400.66
2023-02-07T06:59:45.668Z,103400.72
2023-02-07T07:02:13.808Z,103388.81
2023-02-07T07:04:41.700Z,103398.97
2023-02-07T07:07:09.411Z,103393.94
2023-02-07T07:09:37.057Z,103400.22
2023-02-07T07:12:05.693Z,103389.69
2023-02-07T07:14:33.619Z,103390.72
2023-02-07T07:17:02.709Z,103395.56
2023-02-07T07:19:30.420Z,103393.00
2023-02-07T07:21:59.089Z,103386.88
2023-02-07T07:24:27.400Z,103391.22
2023-02-07T07:26:56.462Z,103398.09
2023-02-07T07:29:24.315Z,103393.66
2023-02-07T07:31:52.097Z,103393.81
2023-02-07T07:34:21.347Z,103393.81
2023-02-07T07:36:48.998Z,103410.97
2023-02-07T07:39:17.029Z,103407.00
2023-02-07T07:41:44.822Z,103406.66
2023-02-07T07:44:12.489Z,103406.44
2023-02-07T07:46:40.251Z,103414.84
2023-02-07T07:49:08.007Z,103408.06
2023-02-07T07:51:37.116Z,103418.53
2023-02-07T07:54:05.015Z,103424.09
2023-02-07T07:56:32.848Z,103423.66
2023-02-07T07:59:05.786Z,103434.78
2023-02-07T08:01:36.582Z,103434.25
2023-02-07T08:04:04.719Z,103425.88
2023-02-07T08:06:32.974Z,103429.25
2023-02-07T08:09:02.041Z,103432.66
2023-02-07T08:11:29.917Z,103428.38
2023-02-07T08:13:57.669Z,103425.84
2023-02-07T08:16:25.448Z,103425.56
2023-02-07T08:18:53.376Z,103422.56
2023-02-07T08:21:21.516Z,103426.66
2023-02-07T08:23:49.219Z,103424.69
2023-02-07T08:26:18.372Z,103418.06
2023-02-07T08:28:46.105Z,103414.03
2023-02-07T08:31:13.965Z,103408.44
2023-02-07T08:33:41.691Z,103406.09
2023-02-07T08:36:11.192Z,103408.25
2023-02-07T08:38:38.924Z,103409.44
2023-02-07T08:41:06.879Z,103396.03
2023-02-07T08:43:35.959Z,103402.84
2023-02-07T08:46:03.849Z,103397.78
2023-02-07T08:48:31.845Z,103395.44
2023-02-07T08:50:59.542Z,103383.50
2023-02-07T08:53:27.299Z,103395.78
2023-02-07T08:55:54.975Z,103401.13
2023-02-07T08:58:22.673Z,103399.91
2023-02-07T09:00:51.829Z,103394.78
2023-02-07T09:03:19.540Z,103386.38
2023-02-07T09:05:47.313Z,103393.81
2023-02-07T09:08:15.206Z,103386.28
2023-02-07T09:10:43.591Z,103400.34
2023-02-07T09:13:12.283Z,103391.19
2023-02-07T09:15:40.009Z,103385.94
2023-02-07T09:18:09.073Z,103386.88
2023-02-07T09:20:37.445Z,103389.97
2023-02-07T09:23:20.555Z,103401.41
2023-02-07T09:25:49.287Z,103396.44
2023-02-07T09:28:17.218Z,103399.19
2023-02-07T09:30:46.132Z,103397.06
2023-02-07T09:33:16.350Z,103392.31
2023-02-07T09:35:46.341Z,103395.41
2023-02-07T09:38:16.093Z,103394.09
2023-02-07T09:40:44.627Z,103386.47
2023-02-07T09:43:21.676Z,103393.56
2023-02-07T09:45:54.383Z,103388.53
2023-02-07T09:48:26.815Z,103395.84
2023-02-07T09:50:56.298Z,103392.03
2023-02-07T09:53:26.674Z,103398.88
2023-02-07T09:55:56.731Z,103399.38
2023-02-07T09:58:31.696Z,103400.31
2023-02-07T10:01:02.238Z,103390.34
2023-02-07T10:03:33.132Z,103390.34
2023-02-07T10:06:12.706Z,103391.44
2023-02-07T10:08:45.152Z,103388.34
2023-02-07T10:11:21.505Z,103372.78
2023-02-07T10:13:59.494Z,103385.84
2023-02-07T10:16:42.278Z,103398.47
2023-02-07T10:19:20.787Z,103394.19
2023-02-07T10:21:52.994Z,103389.34
2023-02-07T10:24:37.256Z,103389.75
2023-02-07T10:27:10.778Z,103392.19
2023-02-07T10:29:52.974Z,103401.00
2023-02-07T10:32:23.523Z,103400.31
2023-02-07T10:34:56.999Z,103396.81
2023-02-07T10:37:26.582Z,103391.81
2023-02-07T10:40:00.391Z,103386.50
2023-02-07T10:42:30.480Z,103395.38
2023-02-07T10:44:58.247Z,103395.53
2023-02-07T10:47:26.504Z,103392.34
2023-02-07T10:49:57.005Z,103399.38
2023-02-07T10:52:30.498Z,103407.44
2023-02-07T10:55:00.087Z,103401.47
2023-02-07T10:57:28.886Z,103410.22
2023-02-07T11:00:02.010Z,103411.69
2023-02-07T11:02:48.948Z,103402.34
2023-02-07T11:05:55.828Z,103399.44
2023-02-07T11:08:27.209Z,103402.13
2023-02-07T11:10:56.389Z,103408.34
2023-02-07T11:13:27.852Z,103408.75
2023-02-07T11:15:58.640Z,103409.88
2023-02-07T11:18:37.604Z,103410.03
2023-02-07T11:21:25.372Z,103398.81
2023-02-07T11:23:55.946Z,103395.50
2023-02-07T11:26:24.789Z,103399.16
2023-02-07T11:28:53.628Z,103395.78
2023-02-07T11:31:27.588Z,103393.31
2023-02-07T11:33:55.357Z,103395.25
2023-02-07T11:36:26.160Z,103377.91
2023-02-07T11:38:57.229Z,103386.66
2023-02-07T11:41:27.474Z,103383.31
2023-02-07T11:44:00.494Z,103377.31
2023-02-07T11:46:35.555Z,103373.84
2023-02-07T11:49:03.688Z,103378.38
2023-02-07T11:51:33.642Z,103375.88
2023-02-07T11:54:03.177Z,103366.69
2023-02-07T11:56:34.529Z,103372.44
2023-02-07T11:59:05.340Z,103364.59
2023-02-07T12:01:34.438Z,103373.56
2023-02-07T12:04:04.057Z,103365.03
2023-02-07T12:06:37.316Z,103369.41
2023-02-07T12:09:06.467Z,103356.22
2023-02-07T12:11:37.986Z,103360.69
2023-02-07T12:14:11.089Z,103355.69
2023-02-07T12:16:42.651Z,103352.03
2023-02-07T12:19:13.503Z,103344.13
2023-02-07T12:21:49.003Z,103345.25
2023-02-07T12:24:21.934Z,103345.13
2023-02-07T12:26:54.832Z,103346.78
2023-02-07T12:29:28.420Z,103353.75
2023-02-07T12:32:04.809Z,103357.44
2023-02-07T12:34:37.362Z,103360.25
2023-02-07T12:37:12.995Z,103359.66
2023-02-07T12:39:43.977Z,103361.56
2023-02-07T12:42:21.848Z,103367.81
2023-02-07T12:44:53.009Z,103356.69
2023-02-07T12:47:27.415Z,103358.50
2023-02-07T12:50:43.768Z,103356.50
2023-02-07T12:53:22.604Z,103357.22
2023-02-07T12:55:57.943Z,103354.00
2023-02-07T12:58:33.085Z,103356.78
2023-02-07T13:01:06.044Z,103358.84
2023-02-07T13:03:48.440Z,103352.78
2023-02-07T13:06:26.057Z,103353.72
2023-02-07T13:08:58.876Z,103350.25
2023-02-07T13:11:35.788Z,103352.03
2023-02-07T13:14:14.081Z,103343.38
2023-02-07T13:16:45.163Z,103340.63
2023-02-07T13:19:20.164Z,103346.75
2023-02-07T13:21:52.930Z,103341.50
2023-02-07T13:24:22.860Z,103345.97
2023-02-07T13:26:54.105Z,103349.34
2023-02-07T13:29:23.646Z,103348.72
2023-02-07T13:31:53.479Z,103347.19
2023-02-07T13:34:25.653Z,103344.47
2023-02-07T13:36:55.313Z,103334.72
2023-02-07T13:39:36.697Z,103332.09
2023-02-07T13:42:13.933Z,103330.44
2023-02-07T13:44:49.912Z,103328.75
2023-02-07T13:47:32.053Z,103329.72
2023-02-07T13:50:03.621Z,103332.38
2023-02-07T13:52:36.217Z,103332.41
2023-02-07T13:55:12.096Z,103323.72
2023-02-07T13:57:59.287Z,103333.28
2023-02-07T14:00:28.839Z,103321.81
2023-02-07T14:02:58.200Z,103324.50
2023-02-07T14:05:29.414Z,103327.25
2023-02-07T14:08:03.949Z,103324.56
2023-02-07T14:10:46.580Z,103326.13
2023-02-07T14:13:29.875Z,103320.16
2023-02-07T14:16:01.226Z,103315.06
2023-02-07T14:18:40.711Z,103330.00
2023-02-07T14:21:28.933Z,103323.03
2023-02-07T14:24:05.727Z,103316.09
2023-02-07T14:26:57.431Z,103311.66
2023-02-07T14:29:56.362Z,103308.97
2023-02-07T14:32:29.877Z,103305.41
2023-02-07T14:35:04.462Z,103298.53
2023-02-07T14:37:39.511Z,103301.16
2023-02-07T14:40:18.054Z,103304.66
2023-02-07T14:42:56.984Z,103299.44
2023-02-07T14:45:24.993Z,103288.97
2023-02-07T14:47:52.922Z,103294.91
2023-02-07T14:50:24.682Z,103300.97
2023-02-07T14:52:53.085Z,103305.31
2023-02-07T14:55:27.180Z,103299.09
2023-02-07T14:57:57.877Z,103297.41
2023-02-07T15:00:31.333Z,103303.59
2023-02-07T15:03:02.987Z,103294.97
2023-02-07T15:05:34.507Z,103285.38
2023-02-07T15:08:14.644Z,103289.66
2023-02-07T15:10:46.876Z,103292.84
2023-02-07T15:13:21.127Z,103304.28
2023-02-07T15:15:52.658Z,103302.44
2023-02-07T15:18:22.458Z,103300.75
2023-02-07T15:20:51.999Z,103306.63
2023-02-07T15:23:19.966Z,103307.53
2023-02-07T15:25:49.172Z,103297.88
2023-02-07T15:28:27.311Z,103295.94
2023-02-07T15:31:01.570Z,103287.91
2023-02-07T15:33:31.342Z,103304.59
2023-02-07T15:35:59.134Z,103295.81
2023-02-07T15:38:29.522Z,103293.13
2023-02-07T15:40:59.395Z,103295.56
2023-02-07T15:43:30.037Z,103295.56
2023-02-07T15:46:02.731Z,103290.28
2023-02-07T15:48:30.514Z,103297.16
2023-02-07T15:51:00.102Z,103282.34
2023-02-07T15:53:29.938Z,103277.75
2023-02-07T15:55:59.428Z,103282.97
2023-02-07T15:58:29.571Z,103282.66
2023-02-07T16:01:01.429Z,103278.06
2023-02-07T16:03:30.786Z,103278.78
2023-02-07T16:06:17.781Z,103282.06
2023-02-07T16:08:46.296Z,103281.81
2023-02-07T16:11:17.993Z,103291.19
2023-02-07T16:13:47.067Z,103284.06
2023-02-07T16:16:23.547Z,103293.47
2023-02-07T16:18:51.247Z,103297.59
2023-02-07T16:21:21.564Z,103293.28
2023-02-07T16:23:51.123Z,103284.38
2023-02-07T16:26:22.782Z,103290.97
2023-02-07T16:28:51.113Z,103282.13
2023-02-07T16:31:19.901Z,103279.06
2023-02-07T16:33:51.544Z,103283.19
2023-02-07T16:36:19.848Z,103290.88
2023-02-07T16:38:47.540Z,103286.03
2023-02-07T16:41:24.148Z,103293.41
2023-02-07T16:43:51.896Z,103300.59
2023-02-07T16:46:19.547Z,103295.09
2023-02-07T16:48:47.268Z,103296.69
2023-02-07T16:51:16.906Z,103298.38
2023-02-07T16:53:44.747Z,103304.31
2023-02-07T16:56:13.579Z,103304.09
2023-02-07T16:58:42.610Z,103307.25
2023-02-07T17:01:11.818Z,103299.16
2023-02-07T17:03:39.672Z,103302.19
2023-02-07T17:06:08.252Z,103304.66
2023-02-07T17:08:37.164Z,103287.22
2023-02-07T17:11:06.505Z,103298.81
2023-02-07T17:13:34.696Z,103292.38
2023-02-07T17:16:03.739Z,103297.22
2023-02-07T17:18:31.407Z,103302.91
2023-02-07T17:20:59.184Z,103307.94
2023-02-07T17:23:28.542Z,103298.38
2023-02-07T17:25:56.471Z,103305.38
2023-02-07T17:28:24.570Z,103308.88
2023-02-07T17:30:53.242Z,103311.13
2023-02-07T17:33:22.348Z,103296.16
2023-02-07T17:35:51.313Z,103291.50
2023-02-07T17:38:19.011Z,103294.69
2023-02-07T17:40:47.123Z,103305.69
2023-02-07T17:43:14.832Z,103299.59
2023-02-07T17:45:42.551Z,103298.34
2023-02-07T17:48:12.643Z,103304.09
2023-02-07T17:50:42.129Z,103301.41
2023-02-07T17:53:10.079Z,103304.09
2023-02-07T17:55:38.679Z,103299.97
2023-02-07T17:58:06.721Z,103307.16
2023-02-07T18:00:36.925Z,103307.03
2023-02-07T18:03:06.193Z,103303.38
2023-02-07T18:05:35.761Z,103304.94
2023-02-07T18:08:05.713Z,103312.47
2023-02-07T18:10:35.291Z,103304.50
2023-02-07T18:13:03.071Z,103311.13
2023-02-07T18:15:31.307Z,103313.44
2023-02-07T18:17:59.154Z,103320.19
2023-02-07T18:20:28.890Z,103317.72
2023-02-07T18:22:58.095Z,103318.50
2023-02-07T18:25:29.588Z,103320.25
2023-02-07T18:28:01.417Z,103327.41
2023-02-07T18:30:29.734Z,103322.22
2023-02-07T18:32:57.505Z,103319.53
2023-02-07T18:35:25.226Z,103311.00
2023-02-07T18:37:52.856Z,103314.13
2023-02-07T18:40:20.726Z,103305.06
2023-02-07T18:42:50.147Z,103312.00
2023-02-07T18:45:18.012Z,103313.53
2023-02-07T18:47:45.776Z,103310.72
2023-02-07T18:50:14.195Z,103313.31
2023-02-07T18:52:41.879Z,103314.81
2023-02-07T18:55:10.229Z,103300.72
2023-02-07T18:57:38.312Z,103300.53
2023-02-07T19:00:09.955Z,103300.41
2023-02-07T19:02:38.149Z,103308.00
2023-02-07T19:05:07.911Z,103306.25
2023-02-07T19:07:35.542Z,103304.41
2023-02-07T19:10:03.300Z,103307.75
2023-02-07T19:12:31.292Z,103303.41
2023-02-07T19:14:59.786Z,103305.06
2023-02-07T19:17:29.026Z,103310.22
2023-02-07T19:19:56.810Z,103304.06
2023-02-07T19:22:35.469Z,103304.72
2023-02-07T19:25:04.513Z,103308.16
2023-02-07T19:27:32.252Z,103314.63
2023-02-07T19:30:00.098Z,103317.28
2023-02-07T19:32:29.110Z,103312.81
2023-02-07T19:34:56.893Z,103310.22
2023-02-07T19:37:24.523Z,103308.34
2023-02-07T19:39:55.969Z,103308.34
2023-02-07T19:42:24.731Z,103305.72
2023-02-07T19:44:52.401Z,103298.13
2023-02-07T19:47:20.162Z,103300.72
2023-02-07T19:49:51.765Z,103303.31
2023-02-07T19:52:19.996Z,103308.53
2023-02-07T19:54:47.816Z,103301.00
2023-02-07T19:57:15.591Z,103302.72
2023-02-07T19:59:43.445Z,103308.81
2023-02-07T20:02:11.257Z,103311.53
2023-02-07T20:04:39.060Z,103314.09
2023-02-07T20:07:08.139Z,103314.09
2023-02-07T20:09:36.442Z,103304.59
2023-02-07T20:12:04.227Z,103301.66
2023-02-07T20:14:32.210Z,103313.88
2023-02-07T20:16:59.890Z,103312.16
2023-02-07T20:19:27.559Z,103312.16
2023-02-07T20:21:55.245Z,103305.19
2023-02-07T20:24:24.323Z,103313.53
2023-02-07T20:26:52.356Z,103308.13
2023-02-07T20:29:20.797Z,103317.63
2023-02-07T20:31:49.088Z,103310.53
2023-02-07T20:34:17.493Z,103316.44
2023-02-07T20:36:46.367Z,103314.56
2023-02-07T20:39:16.362Z,103311.81
2023-02-07T20:41:46.874Z,103313.50
2023-02-07T20:44:16.824Z,103319.72
2023-02-07T20:46:46.555Z,103316.69
2023-02-07T20:49:16.880Z,103312.47
2023-02-07T20:51:44.927Z,103307.13
2023-02-07T20:54:13.712Z,103303.66
2023-02-07T20:56:41.461Z,103303.59
2023-02-07T20:59:12.330Z,103301.94
2023-02-07T21:01:40.424Z,103302.72
2023-02-07T21:04:08.164Z,103304.34
2023-02-07T21:06:36.970Z,103295.72
2023-02-07T21:09:06.956Z,103298.31
2023-02-07T21:11:37.071Z,103294.13
2023-02-07T21:14:06.371Z,103305.06
2023-02-07T21:16:35.922Z,103310.22
2023-02-07T21:19:03.700Z,103308.50
2023-02-07T21:21:31.827Z,103305.88
2023-02-07T21:24:00.076Z,103296.94
2023-02-07T21:26:28.389Z,103297.19
2023-02-07T21:28:58.852Z,103307.63
2023-02-07T21:31:27.192Z,103293.91
2023-02-07T21:33:56.703Z,103298.47
2023-02-07T21:36:26.006Z,103289.31
2023-02-07T21:38:55.256Z,103287.78
2023-02-07T21:41:25.670Z,103295.38
2023-02-07T21:43:55.147Z,103291.97
2023-02-07T21:46:24.654Z,103286.03
2023-02-07T21:48:54.377Z,103288.44
2023-02-07T21:51:25.414Z,103285.81
2023-02-07T21:53:54.982Z,103276.56
2023-02-07T21:56:25.788Z,103283.56
2023-02-07T21:58:55.345Z,103277.28
2023-02-07T22:01:24.055Z,103276.41
2023-02-07T22:03:58.651Z,103278.03
2023-02-07T22:06:28.192Z,103278.03
2023-02-07T22:08:58.379Z,103283.97
2023-02-07T22:11:28.029Z,103281.94
2023-02-07T22:13:56.088Z,103275.75
2023-02-07T22:16:25.521Z,103271.41
2023-02-07T22:18:54.396Z,103274.00
2023-02-07T22:21:23.490Z,103270.09
2023-02-07T22:23:52.799Z,103273.19
2023-02-07T22:26:20.611Z,103276.75
2023-02-07T22:28:48.976Z,103275.00
2023-02-07T22:31:21.499Z,103273.38
2023-02-07T22:33:49.885Z,103274.88
2023-02-07T22:36:20.272Z,103277.03
2023-02-07T22:38:48.735Z,103276.13
2023-02-07T22:41:17.983Z,103284.63
2023-02-07T22:43:45.764Z,103278.63
2023-02-07T22:46:15.964Z,103275.63
2023-02-07T22:48:44.075Z,103280.41
2023-02-07T22:51:13.439Z,103278.53
2023-02-07T22:53:41.911Z,103274.00
2023-02-07T22:56:10.153Z,103268.97
2023-02-07T22:58:39.236Z,103269.19
2023-02-07T23:01:07.170Z,103274.56
2023-02-07T23:03:35.473Z,103266.38
2023-02-07T23:06:04.781Z,103265.19
2023-02-07T23:08:32.459Z,103264.69
2023-02-07T23:11:00.130Z,103261.81
2023-02-07T23:13:27.817Z,103262.75
2023-02-07T23:15:56.896Z,103266.22
2023-02-07T23:18:25.530Z,103277.53
2023-02-07T23:20:53.464Z,103270.69
2023-02-07T23:23:22.573Z,103266.28
2023-02-07T23:25:50.648Z,103261.75
2023-02-07T23:28:18.392Z,103270.25
2023-02-07T23:30:46.198Z,103275.66
2023-02-07T23:33:15.288Z,103274.16
2023-02-07T23:35:42.937Z,103283.72
2023-02-07T23:38:10.644Z,103280.56
2023-02-07T23:40:38.637Z,103288.63
2023-02-07T23:43:06.509Z,103281.81
2023-02-07T23:45:34.204Z,103288.91
2023-02-07T23:48:02.314Z,103285.78
2023-02-07T23:50:31.388Z,103287.44
2023-02-07T23:52:59.080Z,103281.31
2023-02-07T23:55:26.822Z,103275.84
2023-02-07T23:57:55.155Z,103277.59
